Terminal Aerodrome Forecast
Issued by NWS

Home | Current Version | Previous Version | Text Only | Print | Product List | Glossary On
Versions: 1 2 3 4 5 6 7 8 9 10 11 12 13 14 15 16 17 18 19 20 21 22 23 24 25 26 27 28 29 30 31 32 33 34 35
000
FTUS43 KLOT 270259 AAB
TAFDPA
TAF AMD
KDPA 270259Z 2703/2724 22010KT P6SM VCSH SCT035 BKN090
     FM270900 23010KT P6SM BKN015
     FM271300 25012G17KT P6SM SCT025
     FM271800 27012KT P6SM SCT040 SCT250 PROB30 2718/2722 6SM -SHRA
      BKN040
     FM272300 05006KT P6SM FEW040=

USA.gov is the U.S. government's official web portal to all federal, state and local government web resources and services.